Time;durP1;ratioP1;P1;durP2;ratioP2;P2;SDS_P1;SDS_P2;PMS_P1;PMS_P2;Temp;Humidity;BMP_temperature;BMP_pressure;BME280_temperature;BME280_humidity;BME280_pressure;Samples;Min_cycle;Max_cycle;Signal;HPM_P1;HPM_P2
2023/10/16 00:01:03;;;;;;;3.05;1.05;;;;;;;;;;5033024;28;20487;-64
2023/10/16 00:03:30;;;;;;;3.83;1.05;;;;;;;;;;5033161;28;20052;-64
2023/10/16 00:05:57;;;;;;;4.10;0.90;;;;;;;;;;5033151;28;20046;-64
2023/10/16 00:08:23;;;;;;;4.28;1.10;;;;;;;;;;5032843;28;20128;-64
2023/10/16 00:11:01;;;;;;;3.10;0.85;;;;;;;;;;5033193;28;20084;-64
2023/10/16 00:13:27;;;;;;;6.40;1.08;;;;;;;;;;5033208;28;20067;-64
2023/10/16 00:15:57;;;;;;;2.60;0.80;;;;;;;;;;5032696;28;20053;-64
2023/10/16 00:18:24;;;;;;;4.38;1.02;;;;;;;;;;5032863;28;20395;-64
2023/10/16 00:20:51;;;;;;;3.30;0.80;;;;;;;;;;5032753;28;20365;-64
2023/10/16 00:23:17;;;;;;;4.35;1.02;;;;;;;;;;5032620;28;20407;-64
2023/10/16 00:25:44;;;;;;;3.88;0.93;;;;;;;;;;5032853;28;20463;-64
2023/10/16 00:28:11;;;;;;;3.78;0.85;;;;;;;;;;5032997;28;20042;-64
2023/10/16 00:30:38;;;;;;;4.75;0.75;;;;;;;;;;5032295;28;20037;-64
2023/10/16 00:33:08;;;;;;;4.57;0.80;;;;;;;;;;5032561;28;20099;-64
2023/10/16 00:35:34;;;;;;;6.20;0.98;;;;;;;;;;5032649;28;20041;-64
2023/10/16 00:38:03;;;;;;;6.38;1.15;;;;;;;;;;5032249;28;20044;-64
2023/10/16 00:40:31;;;;;;;4.63;0.80;;;;;;;;;;5032501;28;20092;-64
2023/10/16 00:43:17;;;;;;;5.30;1.05;;;;;;;;;;5032572;28;20044;-64
2023/10/16 00:45:48;;;;;;;5.03;0.90;;;;;;;;;;5032191;28;20054;-64
2023/10/16 00:48:17;;;;;;;3.47;1.20;;;;;;;;;;5032496;28;20361;-64
2023/10/16 00:50:44;;;;;;;7.75;1.15;;;;;;;;;;5032755;28;20515;-64
2023/10/16 00:53:11;;;;;;;5.38;1.15;;;;;;;;;;5019983;28;20086;-64
2023/10/16 00:55:38;;;;;;;3.25;0.93;;;;;;;;;;5052237;28;20150;-64
2023/10/16 00:58:07;;;;;;;9.32;1.50;;;;;;;;;;5052409;28;20475;-64
2023/10/16 01:00:38;;;;;;;4.50;1.20;;;;;;;;;;5051778;28;20399;-64
2023/10/16 01:03:05;;;;;;;4.60;1.38;;;;;;;;;;5051904;28;20041;-64
2023/10/16 01:05:39;;;;;;;4.45;1.13;;;;;;;;;;5033919;28;20406;-64
2023/10/16 01:08:07;;;;;;;3.83;1.02;;;;;;;;;;5051624;28;20110;-64
2023/10/16 01:10:40;;;;;;;3.22;1.42;;;;;;;;;;5051996;28;20055;-64
2023/10/16 01:13:10;;;;;;;6.18;0.90;;;;;;;;;;5051955;28;20041;-64
2023/10/16 01:15:43;;;;;;;5.00;1.13;;;;;;;;;;5051488;28;20044;-64
2023/10/16 01:18:11;;;;;;;6.45;1.02;;;;;;;;;;5051687;28;20527;-64
2023/10/16 01:20:37;;;;;;;4.70;1.17;;;;;;;;;;5051663;28;20039;-64
2023/10/16 01:23:04;;;;;;;7.43;1.25;;;;;;;;;;5051361;28;20036;-64
2023/10/16 01:25:31;;;;;;;4.40;1.00;;;;;;;;;;5051311;28;20033;-64
2023/10/16 01:27:57;;;;;;;4.63;1.40;;;;;;;;;;5051766;28;20048;-64
2023/10/16 01:30:23;;;;;;;2.53;1.05;;;;;;;;;;5051231;28;20410;-64
2023/10/16 01:32:49;;;;;;;6.78;0.75;;;;;;;;;;5051413;28;20048;-64
2023/10/16 01:35:18;;;;;;;3.28;0.90;;;;;;;;;;5051506;28;20056;-64
2023/10/16 01:37:46;;;;;;;3.42;1.02;;;;;;;;;;5051154;28;20478;-65
2023/10/16 01:40:22;;;;;;;2.97;0.90;;;;;;;;;;5051515;28;20049;-65
2023/10/16 01:42:55;;;;;;;3.60;0.90;;;;;;;;;;5051708;28;20052;-65
2023/10/16 01:45:21;;;;;;;2.55;0.70;;;;;;;;;;5051040;28;20041;-65
2023/10/16 01:47:48;;;;;;;4.18;0.95;;;;;;;;;;5051398;28;20044;-65
2023/10/16 01:50:21;;;;;;;3.67;1.02;;;;;;;;;;5051307;28;20033;-65
2023/10/16 01:52:47;;;;;;;4.10;0.75;;;;;;;;;;5050924;28;20069;-65
2023/10/16 01:55:16;;;;;;;5.97;1.02;;;;;;;;;;5050987;28;20048;-65
2023/10/16 01:57:44;;;;;;;2.33;0.77;;;;;;;;;;5051022;28;20080;-65
2023/10/16 02:00:16;;;;;;;2.67;0.75;;;;;;;;;;5050737;28;20045;-65
2023/10/16 02:02:42;;;;;;;5.80;0.90;;;;;;;;;;5050955;28;20049;-65
2023/10/16 02:05:10;;;;;;;5.85;1.00;;;;;;;;;;5050849;28;20124;-65
2023/10/16 02:07:41;;;;;;;3.75;0.73;;;;;;;;;;5050850;28;20049;-65
2023/10/16 02:10:11;;;;;;;3.05;1.02;;;;;;;;;;5050375;28;20041;-65
2023/10/16 02:12:38;;;;;;;4.45;0.90;;;;;;;;;;5050827;28;20494;-65
2023/10/16 02:15:06;;;;;;;5.00;1.00;;;;;;;;;;5050057;28;20052;-65
2023/10/16 02:17:32;;;;;;;3.28;0.80;;;;;;;;;;5050554;28;20037;-65
2023/10/16 02:19:58;;;;;;;4.28;0.90;;;;;;;;;;5050769;28;20130;-65
2023/10/16 02:22:24;;;;;;;4.97;0.90;;;;;;;;;;5050333;28;20040;-65
2023/10/16 02:24:50;;;;;;;3.25;1.00;;;;;;;;;;5050509;28;20452;-65
2023/10/16 02:27:18;;;;;;;4.88;0.95;;;;;;;;;;5050597;28;20069;-65
2023/10/16 02:29:49;;;;;;;3.22;1.02;;;;;;;;;;5050173;28;20051;-65
2023/10/16 02:32:15;;;;;;;3.80;1.00;;;;;;;;;;5050434;28;20099;-65
2023/10/16 02:34:41;;;;;;;7.30;1.85;;;;;;;;;;5050452;28;20037;-65
2023/10/16 02:37:11;;;;;;;5.60;1.55;;;;;;;;;;5049965;28;20048;-65
2023/10/16 02:39:41;;;;;;;6.43;1.60;;;;;;;;;;5050603;28;20102;-65
2023/10/16 02:42:14;;;;;;;4.13;1.40;;;;;;;;;;5032444;28;20053;-65
2023/10/16 02:44:42;;;;;;;5.82;1.92;;;;;;;;;;5049890;28;20049;-65
2023/10/16 02:47:19;;;;;;;6.10;2.45;;;;;;;;;;5050078;28;20048;-65
2023/10/16 02:49:48;;;;;;;6.18;2.30;;;;;;;;;;5050207;28;20475;-65
2023/10/16 02:52:16;;;;;;;4.95;2.25;;;;;;;;;;5031760;28;20267;-65
2023/10/16 02:54:43;;;;;;;4.07;2.38;;;;;;;;;;5049757;28;20059;-65
2023/10/16 02:57:10;;;;;;;7.18;3.03;;;;;;;;;;5032030;28;20099;-65
2023/10/16 02:59:38;;;;;;;4.35;2.83;;;;;;;;;;5049416;28;20102;-65
2023/10/16 03:02:10;;;;;;;5.57;2.95;;;;;;;;;;5049960;28;20102;-65
2023/10/16 03:04:36;;;;;;;5.28;2.58;;;;;;;;;;5050008;28;20037;-65
2023/10/16 03:07:06;;;;;;;7.10;3.08;;;;;;;;;;5049510;28;20045;-65
2023/10/16 03:09:32;;;;;;;7.45;2.85;;;;;;;;;;5049766;28;20041;-65
2023/10/16 03:12:08;;;;;;;8.60;2.97;;;;;;;;;;5049985;28;20048;-65
2023/10/16 03:14:50;;;;;;;5.45;3.08;;;;;;;;;;5049611;28;20487;-65
2023/10/16 03:17:25;;;;;;;7.78;3.20;;;;;;;;;;5049704;28;20115;-65
2023/10/16 03:19:54;;;;;;;7.18;3.20;;;;;;;;;;5049527;28;20060;-65
2023/10/16 03:22:21;;;;;;;9.07;3.20;;;;;;;;;;5048987;28;20184;-65
2023/10/16 03:24:47;;;;;;;9.07;3.53;;;;;;;;;;5031606;28;20464;-65
2023/10/16 03:27:28;;;;;;;6.85;3.30;;;;;;;;;;5049528;28;20051;-65
2023/10/16 03:29:55;;;;;;;6.78;3.08;;;;;;;;;;5049465;28;20098;-65
2023/10/16 03:32:21;;;;;;;9.70;3.60;;;;;;;;;;5049585;28;20048;-65
2023/10/16 03:34:47;;;;;;;7.90;3.65;;;;;;;;;;5049191;28;20045;-65
2023/10/16 03:37:14;;;;;;;8.32;3.00;;;;;;;;;;5049069;28;20044;-65
2023/10/16 03:39:41;;;;;;;10.05;3.53;;;;;;;;;;5049510;28;20507;-65
2023/10/16 03:42:10;;;;;;;9.38;3.67;;;;;;;;;;5048902;28;20071;-65
2023/10/16 03:44:41;;;;;;;7.97;3.83;;;;;;;;;;5049585;28;20045;-65
2023/10/16 03:47:07;;;;;;;11.35;4.07;;;;;;;;;;5049485;28;20052;-65
2023/10/16 03:49:35;;;;;;;9.27;3.47;;;;;;;;;;5049100;28;20407;-65
2023/10/16 03:52:02;;;;;;;7.90;3.50;;;;;;;;;;5049660;28;20045;-65
2023/10/16 03:54:34;;;;;;;5.40;3.63;;;;;;;;;;5049006;28;20499;-65
2023/10/16 03:57:01;;;;;;;8.15;3.60;;;;;;;;;;5048954;28;20450;-65
2023/10/16 03:59:30;;;;;;;7.47;3.50;;;;;;;;;;5049458;28;20080;-65
2023/10/16 04:01:56;;;;;;;11.23;3.63;;;;;;;;;;5049418;28;20167;-65
2023/10/16 04:04:26;;;;;;;8.18;3.65;;;;;;;;;;5049084;28;20466;-65
2023/10/16 04:06:58;;;;;;;7.47;3.80;;;;;;;;;;5049207;28;20048;-65
2023/10/16 04:09:29;;;;;;;7.20;3.17;;;;;;;;;;5049375;28;20045;-65
2023/10/16 04:11:56;;;;;;;7.22;3.67;;;;;;;;;;5048931;28;20123;-65
2023/10/16 04:14:44;;;;;;;4.95;2.95;;;;;;;;;;5049306;28;20138;-65
2023/10/16 04:17:11;;;;;;;6.35;3.05;;;;;;;;;;5048475;28;20041;-65
2023/10/16 04:19:52;;;;;;;9.38;3.33;;;;;;;;;;5048577;28;20037;-65
2023/10/16 04:22:18;;;;;;;5.82;3.10;;;;;;;;;;5049427;28;20064;-65
2023/10/16 04:24:44;;;;;;;4.82;2.60;;;;;;;;;;5049030;28;20036;-65
2023/10/16 04:29:46;;;;;;;;;;;;;;;;;;5029633;28;20271;-65
2023/10/16 04:34:53;;;;;;;4.18;2.50;;;;;;;;;;5032472;28;20106;-65
2023/10/16 04:37:29;;;;;;;5.03;2.45;;;;;;;;;;5032381;28;20045;-65
2023/10/16 04:50:29;;;;;;;6.63;2.40;;;;;;;;;;5032211;28;20048;-65
2023/10/16 05:00:56;;;;;;;4.60;2.35;;;;;;;;;;5033474;28;20044;-65
2023/10/16 05:03:43;;;;;;;6.40;2.13;;;;;;;;;;5033566;28;20084;-65
2023/10/16 05:16:47;;;;;;;6.53;2.80;;;;;;;;;;5034149;28;20121;-65
2023/10/16 05:22:02;;;;;;;5.90;2.70;;;;;;;;;;5053041;28;20048;-65
2023/10/16 06:14:11;;;;;;;8.75;2.80;;;;;;;;;;5032466;28;20045;-65
2023/10/16 06:16:40;;;;;;;5.10;2.50;;;;;;;;;;5033100;28;20651;-65
2023/10/16 06:19:14;;;;;;;6.35;2.95;;;;;;;;;;5051631;28;20045;-65
2023/10/16 06:21:45;;;;;;;7.70;2.95;;;;;;;;;;5051911;28;20052;-65
2023/10/16 06:24:25;;;;;;;6.28;2.50;;;;;;;;;;5052339;28;20587;-65
2023/10/16 06:26:51;;;;;;;7.28;2.35;;;;;;;;;;5051600;28;20489;-65
2023/10/16 06:29:17;;;;;;;4.82;2.60;;;;;;;;;;5051847;28;20126;-65
2023/10/16 06:31:49;;;;;;;5.25;2.60;;;;;;;;;;5051594;28;20049;-65
2023/10/16 06:34:15;;;;;;;11.40;2.72;;;;;;;;;;5050109;28;20039;-65
2023/10/16 06:36:42;;;;;;;9.98;2.45;;;;;;;;;;5047541;28;20666;-65
2023/10/16 06:39:22;;;;;;;7.97;2.60;;;;;;;;;;5049246;28;20551;-65
2023/10/16 06:41:53;;;;;;;4.85;2.45;;;;;;;;;;5058258;28;20041;-65
2023/10/16 06:44:21;;;;;;;6.40;2.03;;;;;;;;;;5053117;28;20036;-65
2023/10/16 06:46:49;;;;;;;5.68;2.10;;;;;;;;;;5058740;28;20048;-64
2023/10/16 06:49:26;;;;;;;7.70;2.28;;;;;;;;;;5058979;28;20099;-65
2023/10/16 06:51:52;;;;;;;4.57;1.90;;;;;;;;;;5054921;28;20058;-65
2023/10/16 06:54:18;;;;;;;7.05;2.35;;;;;;;;;;5050424;28;20063;-65
2023/10/16 06:56:45;;;;;;;8.45;2.88;;;;;;;;;;5052150;28;20120;-65
2023/10/16 06:59:16;;;;;;;4.75;2.35;;;;;;;;;;5059274;28;20049;-65
2023/10/16 07:01:46;;;;;;;5.95;2.13;;;;;;;;;;5050850;28;20049;-65
2023/10/16 07:04:13;;;;;;;7.25;2.40;;;;;;;;;;5050402;28;20044;-65
2023/10/16 07:06:42;;;;;;;7.65;2.83;;;;;;;;;;5032437;28;20443;-65
2023/10/16 07:09:09;;;;;;;4.45;2.20;;;;;;;;;;5032590;28;20041;-65
2023/10/16 07:11:35;;;;;;;5.05;2.38;;;;;;;;;;5038505;28;20106;-66
2023/10/16 07:14:01;;;;;;;3.55;2.05;;;;;;;;;;5044954;28;20043;-66
2023/10/16 07:16:28;;;;;;;5.80;2.25;;;;;;;;;;5050118;28;20444;-66
2023/10/16 07:18:57;;;;;;;6.47;2.25;;;;;;;;;;5050109;28;20052;-66
2023/10/16 07:21:25;;;;;;;9.25;2.13;;;;;;;;;;5050299;28;20080;-66
2023/10/16 07:23:53;;;;;;;5.70;2.05;;;;;;;;;;5050475;28;20029;-64
2023/10/16 07:26:19;;;;;;;4.95;2.05;;;;;;;;;;5049917;28;20041;-65
2023/10/16 07:28:49;;;;;;;3.85;2.33;;;;;;;;;;5050096;28;20045;-65
2023/10/16 07:31:16;;;;;;;4.40;2.35;;;;;;;;;;5050431;28;20094;-65
2023/10/16 07:33:44;;;;;;;11.20;2.67;;;;;;;;;;5050136;28;20105;-64
2023/10/16 07:36:11;;;;;;;4.45;2.03;;;;;;;;;;5026734;28;20594;-59
2023/10/16 07:38:38;;;;;;;7.13;2.60;;;;;;;;;;5049741;28;20053;-59
2023/10/16 07:41:04;;;;;;;3.90;1.88;;;;;;;;;;5049799;28;20061;-60
2023/10/16 07:43:33;;;;;;;6.07;1.80;;;;;;;;;;5050156;28;20075;-60
2023/10/16 07:48:40;;;;;;;3.33;1.85;;;;;;;;;;5049465;28;20090;-60
2023/10/16 07:51:09;;;;;;;9.80;2.05;;;;;;;;;;5035437;28;20041;-61
2023/10/16 07:53:36;;;;;;;7.72;1.90;;;;;;;;;;5049361;28;20629;-60
2023/10/16 07:56:02;;;;;;;9.88;2.00;;;;;;;;;;5049444;28;20127;-60
2023/10/16 07:58:34;;;;;;;7.82;2.13;;;;;;;;;;5049605;28;20505;-60
2023/10/16 08:03:41;;;;;;;4.43;1.80;;;;;;;;;;5049986;28;19970;-60
2023/10/16 08:06:12;;;;;;;3.60;1.70;;;;;;;;;;5049769;28;20366;-60
2023/10/16 08:08:39;;;;;;;7.07;1.70;;;;;;;;;;5050343;28;20102;-58
2023/10/16 08:11:18;;;;;;;5.50;1.63;;;;;;;;;;5053419;28;20053;-60
2023/10/16 08:13:48;;;;;;;6.68;1.60;;;;;;;;;;5053472;28;20119;-60
2023/10/16 08:16:17;;;;;;;8.10;1.70;;;;;;;;;;5053047;28;20064;-60
2023/10/16 08:18:49;;;;;;;4.38;2.08;;;;;;;;;;5052865;28;20053;-60
2023/10/16 08:21:24;;;;;;;3.65;1.67;;;;;;;;;;5050235;28;20040;-59
2023/10/16 08:23:59;;;;;;;8.30;2.22;;;;;;;;;;5046414;28;20041;-60
2023/10/16 08:26:28;;;;;;;5.20;1.58;;;;;;;;;;5050541;28;20037;-60
2023/10/16 08:31:43;;;;;;;8.13;1.92;;;;;;;;;;5042693;28;20087;-59
2023/10/16 08:34:13;;;;;;;6.50;1.58;;;;;;;;;;5047292;28;20415;-60
2023/10/16 08:36:39;;;;;;;6.20;1.67;;;;;;;;;;5051528;28;20044;-59
2023/10/16 08:39:09;;;;;;;6.50;2.42;;;;;;;;;;5050886;28;20128;-59
2023/10/16 08:42:18;;;;;;;4.40;1.60;;;;;;;;;;5045236;28;20036;-59
2023/10/16 08:44:31;;;;;;;4.85;1.88;;;;;;;;;;5042389;28;20064;-56
2023/10/16 08:49:24;;;;;;;3.58;1.50;;;;;;;;;;5048870;28;20057;-59
2023/10/16 08:51:54;;;;;;;4.05;1.40;;;;;;;;;;5029442;28;20466;-57
2023/10/16 08:54:35;;;;;;;9.32;1.67;;;;;;;;;;5040972;28;20168;-55
2023/10/16 08:57:08;;;;;;;2.80;1.60;;;;;;;;;;5033934;28;20526;-58
2023/10/16 08:59:35;;;;;;;6.88;1.52;;;;;;;;;;5048686;28;20091;-56
2023/10/16 09:02:02;;;;;;;4.47;1.50;;;;;;;;;;5049298;28;20060;-55
2023/10/16 09:04:28;;;;;;;6.43;1.70;;;;;;;;;;5043813;28;20119;-59
2023/10/16 09:06:57;;;;;;;7.43;2.00;;;;;;;;;;5050023;28;20095;-60
2023/10/16 09:09:28;;;;;;;8.77;1.42;;;;;;;;;;5049717;28;20103;-59
2023/10/16 09:12:04;;;;;;;7.00;1.63;;;;;;;;;;5040221;28;20053;-58
2023/10/16 09:14:32;;;;;;;7.55;1.60;;;;;;;;;;5051882;28;20045;-60
2023/10/16 09:17:02;;;;;;;5.32;1.67;;;;;;;;;;5049884;28;20691;-55
2023/10/16 09:19:33;;;;;;;4.50;1.30;;;;;;;;;;5050176;28;20395;-60
2023/10/16 09:22:03;;;;;;;3.58;1.20;;;;;;;;;;5039336;28;20134;-59
2023/10/16 09:24:30;;;;;;;4.60;1.35;;;;;;;;;;5047432;28;20055;-57
2023/10/16 09:26:56;;;;;;;8.85;1.88;;;;;;;;;;5043823;28;20495;-59
2023/10/16 09:29:26;;;;;;;5.88;1.52;;;;;;;;;;5048511;28;20048;-58
2023/10/16 09:31:52;;;;;;;5.80;1.27;;;;;;;;;;5051228;28;20515;-59
2023/10/16 09:34:25;;;;;;;5.57;1.50;;;;;;;;;;5049820;28;20044;-58
2023/10/16 09:39:52;;;;;;;4.97;1.50;;;;;;;;;;5048388;28;20375;-58
2023/10/16 09:42:24;;;;;;;4.57;1.20;;;;;;;;;;5032808;28;20072;-60
2023/10/16 09:44:59;;;;;;;3.85;1.40;;;;;;;;;;5050676;28;20783;-59
2023/10/16 09:47:26;;;;;;;7.40;1.38;;;;;;;;;;5044507;28;20037;-58
2023/10/16 09:49:53;;;;;;;6.45;1.13;;;;;;;;;;5048468;28;20120;-58
2023/10/16 09:52:21;;;;;;;5.25;1.35;;;;;;;;;;5047368;28;20075;-59
2023/10/16 09:54:49;;;;;;;5.13;1.48;;;;;;;;;;5050688;28;20100;-58
2023/10/16 09:57:22;;;;;;;8.00;1.73;;;;;;;;;;5049828;28;20106;-60
2023/10/16 09:59:54;;;;;;;5.30;1.20;;;;;;;;;;5046655;28;20059;-61
2023/10/16 10:02:25;;;;;;;9.32;1.48;;;;;;;;;;5036555;28;20048;-61
2023/10/16 10:05:08;;;;;;;4.23;1.43;;;;;;;;;;5050864;28;20120;-60
2023/10/16 10:07:49;;;;;;;8.75;1.50;;;;;;;;;;5034720;28;20311;-59
2023/10/16 10:13:08;;;;;;;9.55;1.50;;;;;;;;;;5044499;28;20125;-62
2023/10/16 10:15:37;;;;;;;6.75;1.10;;;;;;;;;;5041573;28;20055;-62
2023/10/16 10:20:58;;;;;;;12.45;1.20;;;;;;;;;;5049287;28;20099;-61
2023/10/16 10:23:24;;;;;;;2.60;1.30;;;;;;;;;;5049555;28;20391;-62
2023/10/16 10:25:53;;;;;;;5.47;1.25;;;;;;;;;;5050321;28;20415;-60
2023/10/16 10:28:22;;;;;;;8.98;1.60;;;;;;;;;;5049884;28;20476;-58
2023/10/16 10:30:49;;;;;;;5.82;1.13;;;;;;;;;;5048399;28;20040;-60
2023/10/16 10:33:37;;;;;;;5.40;1.42;;;;;;;;;;5050337;28;20033;-60
2023/10/16 10:36:22;;;;;;;8.07;1.40;;;;;;;;;;5033888;28;20388;-59
2023/10/16 10:38:48;;;;;;;3.72;1.23;;;;;;;;;;5044282;28;20045;-66
2023/10/16 10:41:14;;;;;;;4.57;1.25;;;;;;;;;;5027718;28;20400;-64
2023/10/16 10:43:48;;;;;;;4.90;1.17;;;;;;;;;;5028278;28;20443;-62
2023/10/16 10:46:23;;;;;;;8.18;1.50;;;;;;;;;;5049002;28;20387;-64
2023/10/16 10:48:50;;;;;;;4.07;1.30;;;;;;;;;;5050473;28;20598;-64
2023/10/16 10:51:17;;;;;;;7.65;1.25;;;;;;;;;;5049629;28;20045;-64
2023/10/16 10:53:56;;;;;;;7.85;1.35;;;;;;;;;;5049447;28;20049;-64
2023/10/16 10:56:22;;;;;;;4.85;1.27;;;;;;;;;;5050532;28;20044;-64
2023/10/16 10:58:49;;;;;;;3.88;0.77;;;;;;;;;;5049993;28;20045;-64
2023/10/16 11:01:33;;;;;;;3.90;0.98;;;;;;;;;;5047032;28;20152;-64
2023/10/16 11:04:01;;;;;;;4.35;0.95;;;;;;;;;;5056638;28;20044;-64
2023/10/16 11:06:38;;;;;;;4.07;0.90;;;;;;;;;;5049972;28;20041;-64
2023/10/16 11:09:12;;;;;;;3.80;0.82;;;;;;;;;;5049243;28;20040;-64
2023/10/16 11:11:44;;;;;;;4.75;0.90;;;;;;;;;;5050931;28;20450;-64
2023/10/16 11:14:12;;;;;;;6.75;1.33;;;;;;;;;;5049217;28;20056;-64
2023/10/16 11:16:45;;;;;;;5.05;0.95;;;;;;;;;;5032338;28;20052;-64
2023/10/16 11:19:11;;;;;;;8.88;1.40;;;;;;;;;;5036177;28;20052;-64
2023/10/16 11:21:44;;;;;;;5.88;1.60;;;;;;;;;;5049046;28;20465;-64
2023/10/16 11:24:11;;;;;;;4.18;0.98;;;;;;;;;;5050279;28;20045;-64
2023/10/16 11:26:38;;;;;;;7.95;1.02;;;;;;;;;;5050235;28;20037;-64
2023/10/16 11:29:04;;;;;;;3.92;1.00;;;;;;;;;;5049943;28;20045;-64
2023/10/16 11:31:31;;;;;;;4.72;1.10;;;;;;;;;;5050639;28;20094;-64
2023/10/16 11:34:00;;;;;;;5.68;1.10;;;;;;;;;;5032885;28;20037;-64
2023/10/16 11:36:28;;;;;;;5.55;1.00;;;;;;;;;;5043642;28;20044;-64
2023/10/16 11:38:58;;;;;;;2.28;0.85;;;;;;;;;;5049252;28;20044;-64
2023/10/16 11:41:26;;;;;;;3.33;1.00;;;;;;;;;;5049538;28;20049;-62
2023/10/16 11:43:54;;;;;;;4.57;1.38;;;;;;;;;;5048693;28;20475;-63
2023/10/16 11:46:30;;;;;;;6.95;1.48;;;;;;;;;;5040588;28;20041;-63
2023/10/16 11:49:17;;;;;;;9.15;1.35;;;;;;;;;;5055707;28;20497;-64
2023/10/16 11:51:53;;;;;;;6.07;1.08;;;;;;;;;;5053528;28;20080;-64
2023/10/16 11:54:23;;;;;;;7.82;1.30;;;;;;;;;;5052420;28;20432;-64
2023/10/16 11:56:52;;;;;;;5.38;1.23;;;;;;;;;;5024256;28;20388;-64
2023/10/16 11:59:19;;;;;;;4.78;1.20;;;;;;;;;;5051038;28;20076;-64
2023/10/16 12:01:46;;;;;;;7.90;1.30;;;;;;;;;;5034742;28;20091;-63
2023/10/16 12:04:16;;;;;;;5.97;1.52;;;;;;;;;;5051073;28;20483;-63
2023/10/16 12:06:44;;;;;;;5.03;1.02;;;;;;;;;;5053042;28;20100;-64
2023/10/16 12:09:13;;;;;;;3.88;0.90;;;;;;;;;;5053483;28;20045;-64
2023/10/16 12:11:43;;;;;;;7.78;0.93;;;;;;;;;;5033434;28;20119;-64
2023/10/16 12:14:13;;;;;;;3.70;1.23;;;;;;;;;;5052586;28;20049;-64
2023/10/16 12:16:40;;;;;;;2.50;1.10;;;;;;;;;;5052976;28;20043;-64
2023/10/16 12:19:06;;;;;;;3.35;0.98;;;;;;;;;;5053146;28;20098;-63
2023/10/16 12:21:32;;;;;;;3.47;1.10;;;;;;;;;;5047625;28;20120;-63
2023/10/16 12:23:58;;;;;;;5.50;1.00;;;;;;;;;;5052721;28;20041;-64
2023/10/16 12:26:25;;;;;;;7.03;1.45;;;;;;;;;;5053245;28;20049;-64
2023/10/16 12:28:51;;;;;;;3.80;1.33;;;;;;;;;;5052949;28;20036;-64
2023/10/16 12:31:17;;;;;;;5.40;1.77;;;;;;;;;;5053203;28;20041;-63
2023/10/16 12:33:43;;;;;;;5.22;1.33;;;;;;;;;;5053668;28;20484;-64
2023/10/16 12:36:11;;;;;;;6.50;1.20;;;;;;;;;;5053478;28;20041;-64
2023/10/16 12:38:37;;;;;;;3.90;0.93;;;;;;;;;;5048229;28;20080;-63
2023/10/16 12:41:05;;;;;;;5.22;0.98;;;;;;;;;;5047308;28;20091;-63
2023/10/16 12:43:31;;;;;;;3.40;0.90;;;;;;;;;;5050775;28;20049;-63
2023/10/16 12:45:57;;;;;;;3.05;0.68;;;;;;;;;;5052873;28;20487;-63
2023/10/16 12:48:30;;;;;;;7.22;1.10;;;;;;;;;;5049988;28;20207;-64
2023/10/16 12:50:59;;;;;;;;;;;;;;;;;;5034013;28;20607;-61
2023/10/16 12:53:26;;;;;;;3.13;0.70;;;;;;;;;;5029683;28;19924;-60
2023/10/16 12:55:55;;;;;;;5.47;0.93;;;;;;;;;;5054906;28;20084;-61
2023/10/16 12:58:22;;;;;;;5.35;1.17;;;;;;;;;;5049385;28;20037;-57
2023/10/16 13:00:50;;;;;;;4.20;1.33;;;;;;;;;;5055599;28;20060;-60
2023/10/16 13:03:19;;;;;;;6.43;0.85;;;;;;;;;;5054928;28;20130;-60
2023/10/16 13:05:45;;;;;;;2.15;0.85;;;;;;;;;;5050615;28;20174;-61
2023/10/16 13:08:11;;;;;;;2.72;1.02;;;;;;;;;;5052492;28;20041;-60
2023/10/16 13:10:38;;;;;;;5.55;1.00;;;;;;;;;;5048971;28;20051;-61
2023/10/16 13:13:04;;;;;;;4.28;1.20;;;;;;;;;;5051332;28;20584;-61
2023/10/16 13:15:31;;;;;;;5.15;0.90;;;;;;;;;;5033647;28;20040;-61
2023/10/16 13:17:57;;;;;;;4.53;1.13;;;;;;;;;;5051214;28;20045;-60
2023/10/16 13:20:30;;;;;;;5.97;1.02;;;;;;;;;;5051401;28;20045;-60
2023/10/16 13:22:56;;;;;;;;;;;;;;;;;;5051924;28;20108;-60
2023/10/16 13:25:23;;;;;;;6.63;1.02;;;;;;;;;;5050227;28;19921;-60
2023/10/16 13:27:51;;;;;;;3.22;0.80;;;;;;;;;;5042389;28;20046;-61
2023/10/16 13:30:17;;;;;;;8.15;1.35;;;;;;;;;;5037878;28;20446;-60
2023/10/16 13:32:46;;;;;;;5.00;1.10;;;;;;;;;;5050941;28;20065;-59
2023/10/16 13:35:16;;;;;;;6.60;1.00;;;;;;;;;;5049846;28;20043;-58
2023/10/16 13:37:49;;;;;;;5.80;1.10;;;;;;;;;;5048808;28;20419;-58
2023/10/16 13:40:21;;;;;;;4.78;1.05;;;;;;;;;;5032637;28;20122;-57
2023/10/16 13:42:51;;;;;;;4.70;1.23;;;;;;;;;;5040890;28;20937;-58
2023/10/16 13:45:17;;;;;;;3.08;1.00;;;;;;;;;;5052031;28;20119;-58
2023/10/16 13:47:47;;;;;;;6.60;1.38;;;;;;;;;;5052550;28;20036;-59
2023/10/16 13:50:18;;;;;;;4.88;1.08;;;;;;;;;;5051943;28;20044;-59
2023/10/16 13:52:44;;;;;;;5.43;0.90;;;;;;;;;;5051804;28;20075;-59
2023/10/16 13:55:14;;;;;;;9.80;1.75;;;;;;;;;;5051829;28;20626;-61
2023/10/16 13:57:42;;;;;;;4.72;1.20;;;;;;;;;;5051869;28;20102;-62
2023/10/16 14:00:37;;;;;;;3.25;0.88;;;;;;;;;;5051892;28;20503;-61
2023/10/16 14:05:44;;;;;;;5.97;1.10;;;;;;;;;;5051147;28;20056;-60
2023/10/16 14:08:10;;;;;;;9.25;1.23;;;;;;;;;;5051947;28;20041;-60
2023/10/16 14:10:38;;;;;;;5.10;1.02;;;;;;;;;;5051693;28;20395;-60
2023/10/16 14:13:11;;;;;;;4.03;1.20;;;;;;;;;;5051470;28;20399;-59
2023/10/16 14:15:41;;;;;;;5.10;1.00;;;;;;;;;;5051114;28;20053;-60
2023/10/16 14:18:14;;;;;;;6.60;1.25;;;;;;;;;;5051654;28;20040;-60
2023/10/16 14:20:45;;;;;;;4.40;0.90;;;;;;;;;;5051499;28;20044;-60
2023/10/16 14:23:11;;;;;;;3.65;1.00;;;;;;;;;;5051491;28;20072;-58
2023/10/16 14:25:57;;;;;;;7.00;1.40;;;;;;;;;;5051207;28;20032;-60
2023/10/16 14:31:09;;;;;;;5.63;1.45;;;;;;;;;;5042003;28;20040;-61
2023/10/16 14:33:36;;;;;;;4.00;0.80;;;;;;;;;;5033387;28;20045;-60
2023/10/16 14:36:06;;;;;;;6.68;1.10;;;;;;;;;;5051195;28;20120;-59
2023/10/16 14:38:32;;;;;;;5.45;1.40;;;;;;;;;;5051280;28;20121;-60
2023/10/16 14:41:15;;;;;;;9.40;1.45;;;;;;;;;;5051041;28;20037;-60
2023/10/16 14:43:45;;;;;;;8.48;1.35;;;;;;;;;;5051116;28;20052;-59
2023/10/16 14:46:11;;;;;;;6.22;1.40;;;;;;;;;;5050923;28;20499;-60
2023/10/16 14:48:42;;;;;;;4.93;1.27;;;;;;;;;;5050801;28;20036;-63
2023/10/16 14:51:18;;;;;;;4.88;1.00;;;;;;;;;;5051400;28;20045;-60
2023/10/16 14:53:44;;;;;;;7.22;1.23;;;;;;;;;;5051131;28;20277;-61
2023/10/16 14:56:11;;;;;;;5.90;1.30;;;;;;;;;;5050799;28;20036;-59
2023/10/16 14:58:38;;;;;;;5.88;0.90;;;;;;;;;;5051297;28;20033;-60
2023/10/16 15:01:16;;;;;;;7.22;1.27;;;;;;;;;;5051471;28;20053;-61
2023/10/16 15:03:47;;;;;;;3.90;0.95;;;;;;;;;;5050934;28;20701;-61
2023/10/16 15:06:15;;;;;;;3.75;0.90;;;;;;;;;;5050984;28;20060;-61
2023/10/16 15:08:44;;;;;;;9.48;1.45;;;;;;;;;;5051207;28;20052;-60
2023/10/16 15:11:10;;;;;;;5.95;1.55;;;;;;;;;;5050996;28;20033;-61
2023/10/16 15:13:37;;;;;;;9.27;1.30;;;;;;;;;;5051269;28;20037;-58
2023/10/16 15:16:06;;;;;;;4.25;1.10;;;;;;;;;;5050859;28;20124;-63
2023/10/16 15:18:33;;;;;;;6.72;1.33;;;;;;;;;;5050534;28;20493;-63
2023/10/16 15:21:00;;;;;;;9.68;1.00;;;;;;;;;;5051451;28;20419;-63
2023/10/16 15:23:26;;;;;;;7.32;1.05;;;;;;;;;;5051121;28;20053;-62
2023/10/16 15:25:52;;;;;;;4.63;0.90;;;;;;;;;;5050857;28;20033;-62
2023/10/16 15:28:18;;;;;;;6.88;1.20;;;;;;;;;;5051297;28;20083;-62
2023/10/16 15:30:44;;;;;;;5.55;1.02;;;;;;;;;;5051265;28;20052;-62
2023/10/16 15:33:10;;;;;;;4.78;1.02;;;;;;;;;;5050691;28;20046;-62
2023/10/16 15:35:40;;;;;;;5.55;1.10;;;;;;;;;;5050810;28;20040;-62
2023/10/16 15:38:08;;;;;;;6.80;1.30;;;;;;;;;;5050795;28;20180;-62
2023/10/16 15:40:35;;;;;;;3.72;1.52;;;;;;;;;;5050423;28;20044;-62
2023/10/16 15:43:01;;;;;;;4.55;1.10;;;;;;;;;;5050938;28;20052;-62
2023/10/16 15:45:40;;;;;;;7.13;1.35;;;;;;;;;;5050743;28;20041;-62
2023/10/16 15:48:07;;;;;;;7.75;1.65;;;;;;;;;;5050594;28;20076;-62
2023/10/16 15:50:35;;;;;;;2.95;1.17;;;;;;;;;;5050976;28;20045;-62
2023/10/16 15:53:03;;;;;;;7.70;1.38;;;;;;;;;;5050468;28;20057;-62
2023/10/16 15:55:29;;;;;;;2.97;1.20;;;;;;;;;;5050354;28;20033;-62
2023/10/16 15:57:56;;;;;;;6.50;1.52;;;;;;;;;;5050485;28;20039;-62
2023/10/16 16:00:30;;;;;;;8.55;1.10;;;;;;;;;;5050725;28;20045;-62
2023/10/16 16:02:57;;;;;;;4.72;1.17;;;;;;;;;;5050399;28;20049;-62
2023/10/16 16:05:23;;;;;;;4.28;1.05;;;;;;;;;;5050882;28;20047;-62
2023/10/16 16:07:52;;;;;;;2.67;0.88;;;;;;;;;;5050509;28;20045;-62
2023/10/16 16:10:19;;;;;;;4.10;1.00;;;;;;;;;;5032328;28;20446;-62
2023/10/16 16:12:46;;;;;;;9.02;1.63;;;;;;;;;;5050741;28;20045;-62
2023/10/16 16:15:16;;;;;;;7.85;1.50;;;;;;;;;;5050724;28;20052;-62
2023/10/16 16:17:45;;;;;;;7.53;1.13;;;;;;;;;;5050308;28;20037;-62
2023/10/16 16:20:15;;;;;;;5.65;1.27;;;;;;;;;;5050825;28;20364;-62
2023/10/16 16:22:45;;;;;;;5.00;1.15;;;;;;;;;;5050512;28;20551;-62
2023/10/16 16:25:14;;;;;;;5.75;1.33;;;;;;;;;;5032086;28;20029;-62
2023/10/16 16:27:46;;;;;;;9.98;1.65;;;;;;;;;;5050630;28;20091;-62
2023/10/16 16:30:13;;;;;;;6.25;1.35;;;;;;;;;;5035590;28;20073;-62
2023/10/16 16:32:39;;;;;;;4.65;1.55;;;;;;;;;;5053830;28;20052;-62
2023/10/16 16:35:06;;;;;;;6.53;1.42;;;;;;;;;;5053957;28;20041;-62
2023/10/16 16:37:33;;;;;;;7.93;1.52;;;;;;;;;;5054291;28;20037;-62
2023/10/16 16:39:59;;;;;;;6.40;1.40;;;;;;;;;;5053872;28;20052;-62
2023/10/16 16:42:25;;;;;;;7.53;2.10;;;;;;;;;;5054146;28;20072;-62
2023/10/16 16:44:51;;;;;;;7.40;1.50;;;;;;;;;;5054095;28;20125;-62
2023/10/16 16:47:17;;;;;;;6.28;1.33;;;;;;;;;;5053656;28;20048;-62